sensor_id;sensor_type;location;lat;lon;timestamp;temperature;humidity
4308;DHT22;2167;53.448;9.984;2022-07-19T00:01:29;18.70;31.70
4308;DHT22;2167;53.448;9.984;2022-07-19T00:03:56;18.70;31.40
4308;DHT22;2167;53.448;9.984;2022-07-19T00:06:22;18.70;31.00
4308;DHT22;2167;53.448;9.984;2022-07-19T00:08:48;18.60;30.60
4308;DHT22;2167;53.448;9.984;2022-07-19T00:11:13;18.50;30.80
4308;DHT22;2167;53.448;9.984;2022-07-19T00:13:39;18.40;31.30
4308;DHT22;2167;53.448;9.984;2022-07-19T00:16:04;18.30;32.10
4308;DHT22;2167;53.448;9.984;2022-07-19T00:18:30;18.30;32.90
4308;DHT22;2167;53.448;9.984;2022-07-19T00:20:56;18.30;33.30
4308;DHT22;2167;53.448;9.984;2022-07-19T00:23:22;18.20;33.40
4308;DHT22;2167;53.448;9.984;2022-07-19T00:25:47;18.20;33.50
4308;DHT22;2167;53.448;9.984;2022-07-19T00:28:13;18.20;33.40
4308;DHT22;2167;53.448;9.984;2022-07-19T00:30:39;18.20;34.30
4308;DHT22;2167;53.448;9.984;2022-07-19T00:33:04;18.20;33.80
4308;DHT22;2167;53.448;9.984;2022-07-19T00:35:35;18.20;33.40
4308;DHT22;2167;53.448;9.984;2022-07-19T00:38:08;18.10;32.90
4308;DHT22;2167;53.448;9.984;2022-07-19T00:40:35;18.20;32.50
4308;DHT22;2167;53.448;9.984;2022-07-19T00:43:00;18.10;32.80
4308;DHT22;2167;53.448;9.984;2022-07-19T00:45:26;18.10;33.20
4308;DHT22;2167;53.448;9.984;2022-07-19T00:47:52;18.00;33.70
4308;DHT22;2167;53.448;9.984;2022-07-19T00:50:18;18.10;33.60
4308;DHT22;2167;53.448;9.984;2022-07-19T00:52:48;18.10;32.70
4308;DHT22;2167;53.448;9.984;2022-07-19T00:55:15;18.00;32.00
4308;DHT22;2167;53.448;9.984;2022-07-19T00:57:43;17.90;32.40
4308;DHT22;2167;53.448;9.984;2022-07-19T01:00:10;17.80;33.10
4308;DHT22;2167;53.448;9.984;2022-07-19T01:02:37;17.80;33.50
4308;DHT22;2167;53.448;9.984;2022-07-19T01:05:04;17.80;32.80
4308;DHT22;2167;53.448;9.984;2022-07-19T01:07:30;17.70;32.70
4308;DHT22;2167;53.448;9.984;2022-07-19T01:09:56;17.60;33.00
4308;DHT22;2167;53.448;9.984;2022-07-19T01:12:22;17.50;34.00
4308;DHT22;2167;53.448;9.984;2022-07-19T01:14:49;17.40;35.00
4308;DHT22;2167;53.448;9.984;2022-07-19T01:17:15;17.20;36.10
4308;DHT22;2167;53.448;9.984;2022-07-19T01:19:43;17.20;36.90
4308;DHT22;2167;53.448;9.984;2022-07-19T01:22:09;17.20;36.90
4308;DHT22;2167;53.448;9.984;2022-07-19T01:24:34;17.10;36.90
4308;DHT22;2167;53.448;9.984;2022-07-19T01:27:00;17.10;37.10
4308;DHT22;2167;53.448;9.984;2022-07-19T01:29:26;17.00;37.50
4308;DHT22;2167;53.448;9.984;2022-07-19T01:31:51;16.90;37.80
4308;DHT22;2167;53.448;9.984;2022-07-19T01:34:17;16.80;38.60
4308;DHT22;2167;53.448;9.984;2022-07-19T01:36:42;16.80;39.00
4308;DHT22;2167;53.448;9.984;2022-07-19T01:39:08;16.80;39.00
4308;DHT22;2167;53.448;9.984;2022-07-19T01:41:34;16.80;39.00
4308;DHT22;2167;53.448;9.984;2022-07-19T01:43:59;16.80;39.10
4308;DHT22;2167;53.448;9.984;2022-07-19T01:46:25;16.80;39.10
4308;DHT22;2167;53.448;9.984;2022-07-19T01:48:51;16.80;39.30
4308;DHT22;2167;53.448;9.984;2022-07-19T01:51:16;16.80;38.40
4308;DHT22;2167;53.448;9.984;2022-07-19T01:53:42;16.70;38.90
4308;DHT22;2167;53.448;9.984;2022-07-19T01:56:07;16.70;39.10
4308;DHT22;2167;53.448;9.984;2022-07-19T01:58:33;16.70;38.90
4308;DHT22;2167;53.448;9.984;2022-07-19T02:00:59;16.70;38.70
4308;DHT22;2167;53.448;9.984;2022-07-19T02:03:24;16.60;38.80
4308;DHT22;2167;53.448;9.984;2022-07-19T02:05:50;16.50;40.10
4308;DHT22;2167;53.448;9.984;2022-07-19T02:08:16;16.50;39.70
4308;DHT22;2167;53.448;9.984;2022-07-19T02:10:42;16.50;39.60
4308;DHT22;2167;53.448;9.984;2022-07-19T02:13:07;16.40;39.60
4308;DHT22;2167;53.448;9.984;2022-07-19T02:15:33;16.30;39.80
4308;DHT22;2167;53.448;9.984;2022-07-19T02:17:59;16.30;40.60
4308;DHT22;2167;53.448;9.984;2022-07-19T02:20:25;16.30;41.00
4308;DHT22;2167;53.448;9.984;2022-07-19T02:22:51;16.20;41.30
4308;DHT22;2167;53.448;9.984;2022-07-19T02:25:16;16.10;43.10
4308;DHT22;2167;53.448;9.984;2022-07-19T02:27:42;16.10;42.30
4308;DHT22;2167;53.448;9.984;2022-07-19T02:30:09;16.00;42.10
4308;DHT22;2167;53.448;9.984;2022-07-19T02:32:37;16.00;42.30
4308;DHT22;2167;53.448;9.984;2022-07-19T02:35:04;15.80;43.30
4308;DHT22;2167;53.448;9.984;2022-07-19T02:37:29;15.80;43.40
4308;DHT22;2167;53.448;9.984;2022-07-19T02:39:55;15.80;43.70
4308;DHT22;2167;53.448;9.984;2022-07-19T02:42:21;15.80;43.80
4308;DHT22;2167;53.448;9.984;2022-07-19T02:44:46;15.70;43.80
4308;DHT22;2167;53.448;9.984;2022-07-19T02:47:12;15.80;44.30
4308;DHT22;2167;53.448;9.984;2022-07-19T02:49:37;15.70;44.30
4308;DHT22;2167;53.448;9.984;2022-07-19T02:52:03;15.70;44.60
4308;DHT22;2167;53.448;9.984;2022-07-19T02:54:29;15.70;44.60
4308;DHT22;2167;53.448;9.984;2022-07-19T02:56:54;15.60;44.50
4308;DHT22;2167;53.448;9.984;2022-07-19T02:59:20;15.60;44.70
4308;DHT22;2167;53.448;9.984;2022-07-19T03:01:45;15.60;44.20
4308;DHT22;2167;53.448;9.984;2022-07-19T03:04:11;15.60;43.80
4308;DHT22;2167;53.448;9.984;2022-07-19T03:06:36;15.50;44.60
4308;DHT22;2167;53.448;9.984;2022-07-19T03:09:02;15.50;45.20
4308;DHT22;2167;53.448;9.984;2022-07-19T03:11:28;15.40;45.40
4308;DHT22;2167;53.448;9.984;2022-07-19T03:13:53;15.50;46.20
4308;DHT22;2167;53.448;9.984;2022-07-19T03:16:19;15.40;46.30
4308;DHT22;2167;53.448;9.984;2022-07-19T03:18:45;15.40;45.70
4308;DHT22;2167;53.448;9.984;2022-07-19T03:21:10;15.40;45.20
4308;DHT22;2167;53.448;9.984;2022-07-19T03:23:37;15.40;45.70
4308;DHT22;2167;53.448;9.984;2022-07-19T03:26:04;15.40;46.30
4308;DHT22;2167;53.448;9.984;2022-07-19T03:28:30;15.30;46.40
4308;DHT22;2167;53.448;9.984;2022-07-19T03:30:56;15.30;46.70
4308;DHT22;2167;53.448;9.984;2022-07-19T03:33:21;15.30;45.80
4308;DHT22;2167;53.448;9.984;2022-07-19T03:35:47;15.30;45.70
4308;DHT22;2167;53.448;9.984;2022-07-19T03:38:14;15.30;46.70
4308;DHT22;2167;53.448;9.984;2022-07-19T03:40:41;15.30;47.30
4308;DHT22;2167;53.448;9.984;2022-07-19T03:43:07;15.30;47.50
4308;DHT22;2167;53.448;9.984;2022-07-19T03:45:33;15.30;47.60
4308;DHT22;2167;53.448;9.984;2022-07-19T03:47:58;15.20;48.00
4308;DHT22;2167;53.448;9.984;2022-07-19T03:50:25;15.20;48.40
4308;DHT22;2167;53.448;9.984;2022-07-19T03:52:51;15.30;48.40
4308;DHT22;2167;53.448;9.984;2022-07-19T03:55:17;15.30;48.00
4308;DHT22;2167;53.448;9.984;2022-07-19T03:57:42;15.30;47.80
4308;DHT22;2167;53.448;9.984;2022-07-19T04:00:08;15.30;47.50
4308;DHT22;2167;53.448;9.984;2022-07-19T04:02:34;15.30;47.80
4308;DHT22;2167;53.448;9.984;2022-07-19T04:04:59;15.30;48.00
4308;DHT22;2167;53.448;9.984;2022-07-19T04:07:25;15.40;48.10
4308;DHT22;2167;53.448;9.984;2022-07-19T04:09:50;15.40;48.40
4308;DHT22;2167;53.448;9.984;2022-07-19T04:12:16;15.40;49.20
4308;DHT22;2167;53.448;9.984;2022-07-19T04:14:42;15.50;49.10
4308;DHT22;2167;53.448;9.984;2022-07-19T04:17:07;15.50;48.90
4308;DHT22;2167;53.448;9.984;2022-07-19T04:19:33;15.50;49.30
4308;DHT22;2167;53.448;9.984;2022-07-19T04:22:00;15.60;49.20
4308;DHT22;2167;53.448;9.984;2022-07-19T04:24:26;15.60;49.50
4308;DHT22;2167;53.448;9.984;2022-07-19T04:26:51;15.60;49.40
4308;DHT22;2167;53.448;9.984;2022-07-19T04:29:17;15.70;49.70
4308;DHT22;2167;53.448;9.984;2022-07-19T04:31:42;15.70;49.80
4308;DHT22;2167;53.448;9.984;2022-07-19T04:34:08;15.80;49.70
4308;DHT22;2167;53.448;9.984;2022-07-19T04:36:33;15.90;49.60
4308;DHT22;2167;53.448;9.984;2022-07-19T04:39:00;15.90;49.80
4308;DHT22;2167;53.448;9.984;2022-07-19T04:41:26;16.00;50.20
4308;DHT22;2167;53.448;9.984;2022-07-19T04:43:51;16.10;50.20
4308;DHT22;2167;53.448;9.984;2022-07-19T04:46:17;16.20;49.80
4308;DHT22;2167;53.448;9.984;2022-07-19T04:48:42;16.20;49.80
4308;DHT22;2167;53.448;9.984;2022-07-19T04:51:08;16.30;50.30
4308;DHT22;2167;53.448;9.984;2022-07-19T04:53:34;16.40;50.80
4308;DHT22;2167;53.448;9.984;2022-07-19T04:55:59;16.50;51.40
4308;DHT22;2167;53.448;9.984;2022-07-19T04:58:25;16.60;51.40
4308;DHT22;2167;53.448;9.984;2022-07-19T05:00:51;16.70;51.30
4308;DHT22;2167;53.448;9.984;2022-07-19T05:03:16;16.80;51.50
4308;DHT22;2167;53.448;9.984;2022-07-19T05:05:42;16.90;51.20
4308;DHT22;2167;53.448;9.984;2022-07-19T05:08:07;17.00;50.90
4308;DHT22;2167;53.448;9.984;2022-07-19T05:10:33;17.10;51.30
4308;DHT22;2167;53.448;9.984;2022-07-19T05:12:59;17.20;49.70
4308;DHT22;2167;53.448;9.984;2022-07-19T05:15:25;17.30;48.90
4308;DHT22;2167;53.448;9.984;2022-07-19T05:17:50;17.40;47.30
4308;DHT22;2167;53.448;9.984;2022-07-19T05:20:16;17.60;46.40
4308;DHT22;2167;53.448;9.984;2022-07-19T05:22:43;17.60;45.60
4308;DHT22;2167;53.448;9.984;2022-07-19T05:25:09;17.80;45.40
4308;DHT22;2167;53.448;9.984;2022-07-19T05:27:35;17.80;44.40
4308;DHT22;2167;53.448;9.984;2022-07-19T05:30:02;18.00;44.50
4308;DHT22;2167;53.448;9.984;2022-07-19T05:32:28;18.10;45.90
4308;DHT22;2167;53.448;9.984;2022-07-19T05:34:53;18.10;45.70
4308;DHT22;2167;53.448;9.984;2022-07-19T05:37:19;18.20;45.10
4308;DHT22;2167;53.448;9.984;2022-07-19T05:39:44;18.30;44.70
4308;DHT22;2167;53.448;9.984;2022-07-19T05:42:10;18.40;43.70
4308;DHT22;2167;53.448;9.984;2022-07-19T05:44:36;18.50;42.20
4308;DHT22;2167;53.448;9.984;2022-07-19T05:47:01;18.50;40.70
4308;DHT22;2167;53.448;9.984;2022-07-19T05:49:27;18.60;39.10
4308;DHT22;2167;53.448;9.984;2022-07-19T05:51:53;18.70;37.70
4308;DHT22;2167;53.448;9.984;2022-07-19T05:54:18;18.70;36.90
4308;DHT22;2167;53.448;9.984;2022-07-19T05:56:44;18.80;36.70
4308;DHT22;2167;53.448;9.984;2022-07-19T05:59:09;18.90;37.40
4308;DHT22;2167;53.448;9.984;2022-07-19T06:01:35;19.00;38.40
4308;DHT22;2167;53.448;9.984;2022-07-19T06:04:01;19.10;38.30
4308;DHT22;2167;53.448;9.984;2022-07-19T06:06:29;19.20;38.10
4308;DHT22;2167;53.448;9.984;2022-07-19T06:08:56;19.20;37.10
4308;DHT22;2167;53.448;9.984;2022-07-19T06:11:22;19.40;36.10
4308;DHT22;2167;53.448;9.984;2022-07-19T06:13:48;19.40;36.30
4308;DHT22;2167;53.448;9.984;2022-07-19T06:16:14;19.60;35.90
4308;DHT22;2167;53.448;9.984;2022-07-19T06:18:40;19.60;34.50
4308;DHT22;2167;53.448;9.984;2022-07-19T06:21:08;19.70;33.30
4308;DHT22;2167;53.448;9.984;2022-07-19T06:23:35;19.90;30.90
4308;DHT22;2167;53.448;9.984;2022-07-19T06:26:01;20.00;30.50
4308;DHT22;2167;53.448;9.984;2022-07-19T06:28:26;20.00;30.90
4308;DHT22;2167;53.448;9.984;2022-07-19T06:30:53;20.10;30.20
4308;DHT22;2167;53.448;9.984;2022-07-19T06:33:19;20.20;30.20
4308;DHT22;2167;53.448;9.984;2022-07-19T06:35:45;20.30;31.30
4308;DHT22;2167;53.448;9.984;2022-07-19T06:38:11;20.40;31.50
4308;DHT22;2167;53.448;9.984;2022-07-19T06:40:36;20.50;31.10
4308;DHT22;2167;53.448;9.984;2022-07-19T06:43:02;20.60;31.00
4308;DHT22;2167;53.448;9.984;2022-07-19T06:45:28;20.70;30.70
4308;DHT22;2167;53.448;9.984;2022-07-19T06:47:53;20.80;29.70
4308;DHT22;2167;53.448;9.984;2022-07-19T06:50:19;20.90;26.50
4308;DHT22;2167;53.448;9.984;2022-07-19T06:52:45;21.10;24.90
4308;DHT22;2167;53.448;9.984;2022-07-19T06:55:12;21.20;24.60
4308;DHT22;2167;53.448;9.984;2022-07-19T06:57:37;21.30;24.20
4308;DHT22;2167;53.448;9.984;2022-07-19T07:00:05;21.50;24.90
4308;DHT22;2167;53.448;9.984;2022-07-19T07:02:32;21.60;26.80
4308;DHT22;2167;53.448;9.984;2022-07-19T07:04:57;21.70;29.00
4308;DHT22;2167;53.448;9.984;2022-07-19T07:07:23;21.80;27.00
4308;DHT22;2167;53.448;9.984;2022-07-19T07:09:49;21.90;19.40
4308;DHT22;2167;53.448;9.984;2022-07-19T07:12:14;22.00;11.80
4308;DHT22;2167;53.448;9.984;2022-07-19T07:14:40;22.20;8.70
4308;DHT22;2167;53.448;9.984;2022-07-19T07:17:06;22.40;7.60
4308;DHT22;2167;53.448;9.984;2022-07-19T07:19:31;22.40;8.00
4308;DHT22;2167;53.448;9.984;2022-07-19T07:21:57;22.60;11.80
4308;DHT22;2167;53.448;9.984;2022-07-19T07:24:25;22.80;10.60
4308;DHT22;2167;53.448;9.984;2022-07-19T07:26:51;22.80;11.00
4308;DHT22;2167;53.448;9.984;2022-07-19T07:29:17;22.90;11.00
4308;DHT22;2167;53.448;9.984;2022-07-19T07:31:42;23.00;7.90
4308;DHT22;2167;53.448;9.984;2022-07-19T07:34:09;23.10;7.40
4308;DHT22;2167;53.448;9.984;2022-07-19T07:36:35;23.30;7.30
4308;DHT22;2167;53.448;9.984;2022-07-19T07:39:01;23.40;5.50
4308;DHT22;2167;53.448;9.984;2022-07-19T07:41:26;23.60;4.90
4308;DHT22;2167;53.448;9.984;2022-07-19T07:43:53;23.60;3.40
4308;DHT22;2167;53.448;9.984;2022-07-19T07:46:19;23.70;3.40
4308;DHT22;2167;53.448;9.984;2022-07-19T07:48:45;23.80;2.60
4308;DHT22;2167;53.448;9.984;2022-07-19T07:51:11;23.90;2.70
4308;DHT22;2167;53.448;9.984;2022-07-19T07:53:36;24.00;1.60
4308;DHT22;2167;53.448;9.984;2022-07-19T07:56:02;24.10;1.20
4308;DHT22;2167;53.448;9.984;2022-07-19T07:58:28;24.20;1.00
4308;DHT22;2167;53.448;9.984;2022-07-19T08:00:53;24.30;1.00
4308;DHT22;2167;53.448;9.984;2022-07-19T08:03:19;24.50;3.40
4308;DHT22;2167;53.448;9.984;2022-07-19T08:06:49;24.70;1.00
4308;DHT22;2167;53.448;9.984;2022-07-19T08:09:15;24.80;1.00
4308;DHT22;2167;53.448;9.984;2022-07-19T08:11:41;24.90;1.00
4308;DHT22;2167;53.448;9.984;2022-07-19T08:14:06;25.10;1.00
4308;DHT22;2167;53.448;9.984;2022-07-19T08:16:32;25.30;1.00
4308;DHT22;2167;53.448;9.984;2022-07-19T08:18:57;25.50;1.00
4308;DHT22;2167;53.448;9.984;2022-07-19T08:21:23;25.70;1.00
4308;DHT22;2167;53.448;9.984;2022-07-19T08:23:49;25.90;1.00
4308;DHT22;2167;53.448;9.984;2022-07-19T08:26:15;26.20;1.00
4308;DHT22;2167;53.448;9.984;2022-07-19T08:28:40;26.40;1.00
4308;DHT22;2167;53.448;9.984;2022-07-19T08:31:06;26.60;1.00
4308;DHT22;2167;53.448;9.984;2022-07-19T08:33:31;26.80;1.00
4308;DHT22;2167;53.448;9.984;2022-07-19T08:35:57;27.10;1.00
4308;DHT22;2167;53.448;9.984;2022-07-19T08:38:23;27.30;1.00
4308;DHT22;2167;53.448;9.984;2022-07-19T08:40:50;27.60;1.00
4308;DHT22;2167;53.448;9.984;2022-07-19T08:43:17;27.70;1.00
4308;DHT22;2167;53.448;9.984;2022-07-19T08:45:43;27.90;1.00
4308;DHT22;2167;53.448;9.984;2022-07-19T08:48:09;28.00;1.00
4308;DHT22;2167;53.448;9.984;2022-07-19T08:50:35;28.10;1.00
4308;DHT22;2167;53.448;9.984;2022-07-19T08:53:01;28.30;1.00
4308;DHT22;2167;53.448;9.984;2022-07-19T08:55:27;28.50;1.00
4308;DHT22;2167;53.448;9.984;2022-07-19T08:57:53;28.80;1.00
4308;DHT22;2167;53.448;9.984;2022-07-19T09:00:30;29.00;1.00
4308;DHT22;2167;53.448;9.984;2022-07-19T09:03:01;29.00;1.00
4308;DHT22;2167;53.448;9.984;2022-07-19T09:05:28;29.20;1.00
4308;DHT22;2167;53.448;9.984;2022-07-19T09:08:08;29.30;1.00
4308;DHT22;2167;53.448;9.984;2022-07-19T09:10:37;29.50;1.00
4308;DHT22;2167;53.448;9.984;2022-07-19T09:13:14;29.60;1.00
4308;DHT22;2167;53.448;9.984;2022-07-19T09:15:49;29.80;1.00
4308;DHT22;2167;53.448;9.984;2022-07-19T09:18:21;30.00;1.00
4308;DHT22;2167;53.448;9.984;2022-07-19T09:20:50;30.40;1.00
4308;DHT22;2167;53.448;9.984;2022-07-19T09:23:16;30.50;1.00
4308;DHT22;2167;53.448;9.984;2022-07-19T09:25:43;30.50;1.00
4308;DHT22;2167;53.448;9.984;2022-07-19T09:28:11;30.60;1.00
4308;DHT22;2167;53.448;9.984;2022-07-19T09:30:49;30.80;1.00
4308;DHT22;2167;53.448;9.984;2022-07-19T09:33:16;31.00;1.00
4308;DHT22;2167;53.448;9.984;2022-07-19T09:35:47;31.10;1.00
4308;DHT22;2167;53.448;9.984;2022-07-19T09:38:34;31.30;1.00
4308;DHT22;2167;53.448;9.984;2022-07-19T09:44:00;31.50;1.00
4308;DHT22;2167;53.448;9.984;2022-07-19T09:49:08;31.80;1.00
4308;DHT22;2167;53.448;9.984;2022-07-19T09:51:39;32.00;1.00
4308;DHT22;2167;53.448;9.984;2022-07-19T09:54:06;32.10;1.00
4308;DHT22;2167;53.448;9.984;2022-07-19T09:56:33;32.30;1.00
4308;DHT22;2167;53.448;9.984;2022-07-19T09:58:59;32.50;1.00
4308;DHT22;2167;53.448;9.984;2022-07-19T10:01:26;32.60;1.00
4308;DHT22;2167;53.448;9.984;2022-07-19T10:03:56;32.90;1.00
4308;DHT22;2167;53.448;9.984;2022-07-19T10:06:25;32.90;1.00
4308;DHT22;2167;53.448;9.984;2022-07-19T10:08:51;33.10;1.00
4308;DHT22;2167;53.448;9.984;2022-07-19T10:11:17;32.90;1.00
4308;DHT22;2167;53.448;9.984;2022-07-19T10:13:43;32.90;1.00
4308;DHT22;2167;53.448;9.984;2022-07-19T10:16:13;32.80;1.00
4308;DHT22;2167;53.448;9.984;2022-07-19T10:19:15;32.90;1.00
4308;DHT22;2167;53.448;9.984;2022-07-19T10:21:35;33.20;1.00
4308;DHT22;2167;53.448;9.984;2022-07-19T10:24:01;33.60;1.00
4308;DHT22;2167;53.448;9.984;2022-07-19T10:26:37;33.80;1.00
4308;DHT22;2167;53.448;9.984;2022-07-19T10:31:36;33.90;1.00
4308;DHT22;2167;53.448;9.984;2022-07-19T10:34:08;34.00;1.00
4308;DHT22;2167;53.448;9.984;2022-07-19T10:36:44;34.10;1.00
4308;DHT22;2167;53.448;9.984;2022-07-19T10:42:24;34.30;1.00
4308;DHT22;2167;53.448;9.984;2022-07-19T10:57:45;34.30;1.00
4308;DHT22;2167;53.448;9.984;2022-07-19T11:00:25;34.30;1.00
4308;DHT22;2167;53.448;9.984;2022-07-19T11:02:53;34.50;1.00
4308;DHT22;2167;53.448;9.984;2022-07-19T11:05:26;34.60;1.00
4308;DHT22;2167;53.448;9.984;2022-07-19T11:07:54;34.90;1.00
4308;DHT22;2167;53.448;9.984;2022-07-19T11:10:28;35.10;1.00
4308;DHT22;2167;53.448;9.984;2022-07-19T11:12:55;35.20;1.00
4308;DHT22;2167;53.448;9.984;2022-07-19T11:15:25;35.10;1.00
4308;DHT22;2167;53.448;9.984;2022-07-19T11:18:04;35.10;1.00
4308;DHT22;2167;53.448;9.984;2022-07-19T11:20:32;35.20;1.00
4308;DHT22;2167;53.448;9.984;2022-07-19T11:22:59;35.40;1.00
4308;DHT22;2167;53.448;9.984;2022-07-19T11:25:30;35.40;1.00
4308;DHT22;2167;53.448;9.984;2022-07-19T11:27:57;35.40;1.00
4308;DHT22;2167;53.448;9.984;2022-07-19T11:30:24;35.40;1.00
4308;DHT22;2167;53.448;9.984;2022-07-19T11:32:55;35.50;1.00
4308;DHT22;2167;53.448;9.984;2022-07-19T11:35:21;35.50;1.00
4308;DHT22;2167;53.448;9.984;2022-07-19T11:37:47;35.70;1.00
4308;DHT22;2167;53.448;9.984;2022-07-19T11:40:13;35.90;1.00
4308;DHT22;2167;53.448;9.984;2022-07-19T11:42:42;36.00;1.00
4308;DHT22;2167;53.448;9.984;2022-07-19T11:45:22;36.10;1.00
4308;DHT22;2167;53.448;9.984;2022-07-19T11:47:54;36.30;1.00
4308;DHT22;2167;53.448;9.984;2022-07-19T11:50:23;36.30;1.00
4308;DHT22;2167;53.448;9.984;2022-07-19T11:52:58;36.40;1.00
4308;DHT22;2167;53.448;9.984;2022-07-19T11:55:27;36.50;1.00
4308;DHT22;2167;53.448;9.984;2022-07-19T11:57:54;36.50;1.00
4308;DHT22;2167;53.448;9.984;2022-07-19T12:00:21;36.50;1.00
4308;DHT22;2167;53.448;9.984;2022-07-19T12:05:16;36.60;1.00
4308;DHT22;2167;53.448;9.984;2022-07-19T12:07:49;36.60;1.00
4308;DHT22;2167;53.448;9.984;2022-07-19T12:10:47;36.60;1.00
4308;DHT22;2167;53.448;9.984;2022-07-19T12:13:29;36.70;1.00
4308;DHT22;2167;53.448;9.984;2022-07-19T12:15:58;36.50;1.00
4308;DHT22;2167;53.448;9.984;2022-07-19T12:18:46;36.60;1.00
4308;DHT22;2167;53.448;9.984;2022-07-19T12:24:21;36.70;1.00
4308;DHT22;2167;53.448;9.984;2022-07-19T12:26:56;36.70;1.00
4308;DHT22;2167;53.448;9.984;2022-07-19T12:31:52;36.80;1.00
4308;DHT22;2167;53.448;9.984;2022-07-19T12:34:18;36.80;1.00
4308;DHT22;2167;53.448;9.984;2022-07-19T12:36:45;36.90;1.00
4308;DHT22;2167;53.448;9.984;2022-07-19T12:39:26;37.00;1.00
4308;DHT22;2167;53.448;9.984;2022-07-19T12:44:25;37.20;1.00
4308;DHT22;2167;53.448;9.984;2022-07-19T12:46:51;37.00;1.00
4308;DHT22;2167;53.448;9.984;2022-07-19T12:49:16;37.00;1.00
4308;DHT22;2167;53.448;9.984;2022-07-19T12:51:42;37.00;1.00
4308;DHT22;2167;53.448;9.984;2022-07-19T12:54:10;37.00;1.00
4308;DHT22;2167;53.448;9.984;2022-07-19T12:56:36;37.00;1.00
4308;DHT22;2167;53.448;9.984;2022-07-19T12:59:02;37.00;1.00
4308;DHT22;2167;53.448;9.984;2022-07-19T13:01:46;36.90;1.00
4308;DHT22;2167;53.448;9.984;2022-07-19T13:04:12;37.00;1.00
4308;DHT22;2167;53.448;9.984;2022-07-19T13:06:38;37.00;1.00
4308;DHT22;2167;53.448;9.984;2022-07-19T13:09:03;37.10;1.00
4308;DHT22;2167;53.448;9.984;2022-07-19T13:11:29;37.10;1.00
4308;DHT22;2167;53.448;9.984;2022-07-19T13:13:55;37.00;1.00
4308;DHT22;2167;53.448;9.984;2022-07-19T13:16:21;37.10;1.00
4308;DHT22;2167;53.448;9.984;2022-07-19T13:18:48;37.00;1.00
4308;DHT22;2167;53.448;9.984;2022-07-19T13:21:16;37.00;1.00
4308;DHT22;2167;53.448;9.984;2022-07-19T13:23:42;37.10;1.00
4308;DHT22;2167;53.448;9.984;2022-07-19T13:26:08;37.20;1.00
4308;DHT22;2167;53.448;9.984;2022-07-19T13:28:34;37.30;1.00
4308;DHT22;2167;53.448;9.984;2022-07-19T13:31:01;37.50;1.00
4308;DHT22;2167;53.448;9.984;2022-07-19T13:33:27;37.50;1.00
4308;DHT22;2167;53.448;9.984;2022-07-19T13:35:52;37.60;1.00
4308;DHT22;2167;53.448;9.984;2022-07-19T13:38:18;37.60;1.00
4308;DHT22;2167;53.448;9.984;2022-07-19T13:40:43;37.70;1.00
4308;DHT22;2167;53.448;9.984;2022-07-19T13:43:09;37.70;1.00
4308;DHT22;2167;53.448;9.984;2022-07-19T13:45:35;37.70;1.00
4308;DHT22;2167;53.448;9.984;2022-07-19T13:48:00;37.70;1.00
4308;DHT22;2167;53.448;9.984;2022-07-19T13:50:28;37.70;1.00
4308;DHT22;2167;53.448;9.984;2022-07-19T13:52:54;37.70;1.00
4308;DHT22;2167;53.448;9.984;2022-07-19T13:55:23;37.80;1.00
4308;DHT22;2167;53.448;9.984;2022-07-19T13:57:48;37.90;1.00
4308;DHT22;2167;53.448;9.984;2022-07-19T14:00:14;37.90;1.00
4308;DHT22;2167;53.448;9.984;2022-07-19T14:02:43;38.00;1.00
4308;DHT22;2167;53.448;9.984;2022-07-19T14:05:09;38.10;1.00
4308;DHT22;2167;53.448;9.984;2022-07-19T14:07:35;38.20;1.00
4308;DHT22;2167;53.448;9.984;2022-07-19T14:10:02;38.20;1.00
4308;DHT22;2167;53.448;9.984;2022-07-19T14:12:28;37.90;1.00
4308;DHT22;2167;53.448;9.984;2022-07-19T14:14:53;37.60;1.00
4308;DHT22;2167;53.448;9.984;2022-07-19T14:17:19;37.50;1.00
4308;DHT22;2167;53.448;9.984;2022-07-19T14:19:44;37.50;1.00
4308;DHT22;2167;53.448;9.984;2022-07-19T14:22:11;37.50;1.00
4308;DHT22;2167;53.448;9.984;2022-07-19T14:24:36;37.40;1.00
4308;DHT22;2167;53.448;9.984;2022-07-19T14:27:02;37.40;1.00
4308;DHT22;2167;53.448;9.984;2022-07-19T14:29:28;37.40;1.00
4308;DHT22;2167;53.448;9.984;2022-07-19T14:31:54;37.40;1.00
4308;DHT22;2167;53.448;9.984;2022-07-19T14:34:22;37.50;1.00
4308;DHT22;2167;53.448;9.984;2022-07-19T14:36:47;37.50;1.00
4308;DHT22;2167;53.448;9.984;2022-07-19T14:39:13;37.50;1.00
4308;DHT22;2167;53.448;9.984;2022-07-19T14:41:38;37.50;1.00
4308;DHT22;2167;53.448;9.984;2022-07-19T14:44:04;37.40;1.00
4308;DHT22;2167;53.448;9.984;2022-07-19T14:46:30;37.40;1.00
4308;DHT22;2167;53.448;9.984;2022-07-19T14:48:55;37.50;1.00
4308;DHT22;2167;53.448;9.984;2022-07-19T14:51:21;37.50;1.00
4308;DHT22;2167;53.448;9.984;2022-07-19T14:53:47;37.50;1.00
4308;DHT22;2167;53.448;9.984;2022-07-19T14:56:13;37.50;1.00
4308;DHT22;2167;53.448;9.984;2022-07-19T14:58:38;37.60;1.00
4308;DHT22;2167;53.448;9.984;2022-07-19T15:01:04;37.70;1.00
4308;DHT22;2167;53.448;9.984;2022-07-19T15:03:30;37.80;1.00
4308;DHT22;2167;53.448;9.984;2022-07-19T15:05:57;37.70;1.00
4308;DHT22;2167;53.448;9.984;2022-07-19T15:08:22;37.80;1.00
4308;DHT22;2167;53.448;9.984;2022-07-19T15:10:48;37.80;1.00
4308;DHT22;2167;53.448;9.984;2022-07-19T15:13:14;37.80;1.00
4308;DHT22;2167;53.448;9.984;2022-07-19T15:15:39;37.80;1.00
4308;DHT22;2167;53.448;9.984;2022-07-19T15:18:05;37.70;1.00
4308;DHT22;2167;53.448;9.984;2022-07-19T15:20:31;37.70;1.00
4308;DHT22;2167;53.448;9.984;2022-07-19T15:22:58;37.80;1.00
4308;DHT22;2167;53.448;9.984;2022-07-19T15:25:24;37.90;1.00
4308;DHT22;2167;53.448;9.984;2022-07-19T15:27:50;37.90;1.00
4308;DHT22;2167;53.448;9.984;2022-07-19T15:30:17;37.80;1.00
4308;DHT22;2167;53.448;9.984;2022-07-19T15:32:43;37.90;1.00
4308;DHT22;2167;53.448;9.984;2022-07-19T15:35:09;37.80;1.00
4308;DHT22;2167;53.448;9.984;2022-07-19T15:37:34;37.80;1.00
4308;DHT22;2167;53.448;9.984;2022-07-19T15:40:00;37.80;1.00
4308;DHT22;2167;53.448;9.984;2022-07-19T15:42:26;37.70;1.00
4308;DHT22;2167;53.448;9.984;2022-07-19T15:44:51;37.60;1.00
4308;DHT22;2167;53.448;9.984;2022-07-19T15:47:17;37.70;1.00
4308;DHT22;2167;53.448;9.984;2022-07-19T15:49:42;37.70;1.00
4308;DHT22;2167;53.448;9.984;2022-07-19T15:52:08;37.70;1.00
4308;DHT22;2167;53.448;9.984;2022-07-19T15:54:35;37.70;1.00
4308;DHT22;2167;53.448;9.984;2022-07-19T15:57:01;37.70;1.00
4308;DHT22;2167;53.448;9.984;2022-07-19T15:59:26;37.80;1.00
4308;DHT22;2167;53.448;9.984;2022-07-19T16:01:52;37.80;1.00
4308;DHT22;2167;53.448;9.984;2022-07-19T16:04:18;37.80;1.00
4308;DHT22;2167;53.448;9.984;2022-07-19T16:06:44;37.80;1.00
4308;DHT22;2167;53.448;9.984;2022-07-19T16:09:09;37.80;1.00
4308;DHT22;2167;53.448;9.984;2022-07-19T16:11:35;37.70;1.00
4308;DHT22;2167;53.448;9.984;2022-07-19T16:14:01;37.70;1.00
4308;DHT22;2167;53.448;9.984;2022-07-19T16:16:27;37.70;1.00
4308;DHT22;2167;53.448;9.984;2022-07-19T16:18:53;37.70;1.00
4308;DHT22;2167;53.448;9.984;2022-07-19T16:21:18;37.70;1.00
4308;DHT22;2167;53.448;9.984;2022-07-19T16:23:44;37.70;1.00
4308;DHT22;2167;53.448;9.984;2022-07-19T16:26:09;37.50;1.00
4308;DHT22;2167;53.448;9.984;2022-07-19T16:28:35;37.50;1.00
4308;DHT22;2167;53.448;9.984;2022-07-19T16:31:01;37.50;1.00
4308;DHT22;2167;53.448;9.984;2022-07-19T16:33:27;37.40;1.00
4308;DHT22;2167;53.448;9.984;2022-07-19T16:35:52;37.40;1.00
4308;DHT22;2167;53.448;9.984;2022-07-19T16:38:18;37.40;1.00
4308;DHT22;2167;53.448;9.984;2022-07-19T16:40:44;37.40;1.00
4308;DHT22;2167;53.448;9.984;2022-07-19T16:43:09;37.30;1.00